sensor_id;sensor_type;location;lat;lon;timestamp;pressure;altitude;pressure_sealevel;temperature;humidity
30339;BME280;795;49.296;11.348;2023-02-28T00:01:28;97012.31;;;-3.99;100.00
30339;BME280;795;49.296;11.348;2023-02-28T00:03:56;97023.97;;;-3.86;100.00
30339;BME280;795;49.296;11.348;2023-02-28T00:06:25;97085.09;;;-3.64;100.00
30339;BME280;795;49.296;11.348;2023-02-28T00:08:53;97066.06;;;-3.69;100.00
30339;BME280;795;49.296;11.348;2023-02-28T00:11:20;97056.69;;;-3.74;100.00
30339;BME280;795;49.296;11.348;2023-02-28T00:13:47;97049.47;;;-3.69;100.00
30339;BME280;795;49.296;11.348;2023-02-28T00:16:21;97060.41;;;-3.80;100.00
30339;BME280;795;49.296;11.348;2023-02-28T00:18:49;97056.88;;;-3.79;100.00
30339;BME280;795;49.296;11.348;2023-02-28T00:21:19;97080.28;;;-3.74;100.00
30339;BME280;795;49.296;11.348;2023-02-28T00:23:46;97068.81;;;-3.72;100.00
30339;BME280;795;49.296;11.348;2023-02-28T00:26:13;97038.06;;;-3.88;100.00
30339;BME280;795;49.296;11.348;2023-02-28T00:28:41;96987.56;;;-4.32;100.00
30339;BME280;795;49.296;11.348;2023-02-28T00:31:08;96986.09;;;-4.39;100.00
30339;BME280;795;49.296;11.348;2023-02-28T00:33:35;97028.31;;;-4.25;100.00
30339;BME280;795;49.296;11.348;2023-02-28T00:36:09;97053.47;;;-4.01;100.00
30339;BME280;795;49.296;11.348;2023-02-28T00:38:39;97050.41;;;-4.11;100.00
30339;BME280;795;49.296;11.348;2023-02-28T00:41:08;97073.56;;;-4.00;100.00
30339;BME280;795;49.296;11.348;2023-02-28T00:43:39;97066.06;;;-4.09;100.00
30339;BME280;795;49.296;11.348;2023-02-28T00:46:07;97071.19;;;-4.06;100.00
30339;BME280;795;49.296;11.348;2023-02-28T00:48:35;97033.66;;;-4.28;100.00
30339;BME280;795;49.296;11.348;2023-02-28T00:51:02;97070.16;;;-4.24;100.00
30339;BME280;795;49.296;11.348;2023-02-28T00:53:30;97066.66;;;-4.23;100.00
30339;BME280;795;49.296;11.348;2023-02-28T00:55:57;97057.72;;;-4.19;100.00
30339;BME280;795;49.296;11.348;2023-02-28T00:58:24;97024.88;;;-4.47;100.00
30339;BME280;795;49.296;11.348;2023-02-28T01:00:52;96979.81;;;-4.77;100.00
30339;BME280;795;49.296;11.348;2023-02-28T01:03:21;97058.19;;;-4.29;100.00
30339;BME280;795;49.296;11.348;2023-02-28T01:05:49;97050.44;;;-4.32;100.00
30339;BME280;795;49.296;11.348;2023-02-28T01:08:17;97045.78;;;-4.46;100.00
30339;BME280;795;49.296;11.348;2023-02-28T01:10:44;97033.22;;;-4.59;100.00
30339;BME280;795;49.296;11.348;2023-02-28T01:13:12;97030.13;;;-4.69;100.00
30339;BME280;795;49.296;11.348;2023-02-28T01:15:49;97057.28;;;-4.50;100.00
30339;BME280;795;49.296;11.348;2023-02-28T01:18:18;97020.81;;;-4.76;100.00
30339;BME280;795;49.296;11.348;2023-02-28T01:20:45;97047.88;;;-4.54;100.00
30339;BME280;795;49.296;11.348;2023-02-28T01:23:13;97059.88;;;-4.48;100.00
30339;BME280;795;49.296;11.348;2023-02-28T01:25:39;97056.59;;;-4.53;100.00
30339;BME280;795;49.296;11.348;2023-02-28T01:28:06;97022.53;;;-4.75;100.00
30339;BME280;795;49.296;11.348;2023-02-28T01:30:34;96993.75;;;-4.75;100.00
30339;BME280;795;49.296;11.348;2023-02-28T01:33:01;97050.22;;;-4.48;100.00
30339;BME280;795;49.296;11.348;2023-02-28T01:35:28;97019.75;;;-4.71;100.00
30339;BME280;795;49.296;11.348;2023-02-28T01:37:55;96982.41;;;-4.97;100.00
30339;BME280;795;49.296;11.348;2023-02-28T01:40:30;97026.13;;;-4.78;100.00
30339;BME280;795;49.296;11.348;2023-02-28T01:42:57;97050.03;;;-4.65;100.00
30339;BME280;795;49.296;11.348;2023-02-28T01:45:31;97045.13;;;-4.73;100.00
30339;BME280;795;49.296;11.348;2023-02-28T01:48:07;97003.78;;;-5.08;100.00
30339;BME280;795;49.296;11.348;2023-02-28T01:50:43;97050.97;;;-4.66;100.00
30339;BME280;795;49.296;11.348;2023-02-28T01:53:21;96988.63;;;-5.00;100.00
30339;BME280;795;49.296;11.348;2023-02-28T01:55:53;97029.44;;;-4.73;100.00
30339;BME280;795;49.296;11.348;2023-02-28T01:58:21;97047.06;;;-4.56;100.00
30339;BME280;795;49.296;11.348;2023-02-28T02:00:49;97042.84;;;-4.60;100.00
30339;BME280;795;49.296;11.348;2023-02-28T02:03:20;96980.94;;;-4.83;100.00
30339;BME280;795;49.296;11.348;2023-02-28T02:05:47;97039.56;;;-4.65;100.00
30339;BME280;795;49.296;11.348;2023-02-28T02:08:25;97040.50;;;-4.66;100.00
30339;BME280;795;49.296;11.348;2023-02-28T02:10:58;97021.31;;;-4.66;100.00
30339;BME280;795;49.296;11.348;2023-02-28T02:14:03;97030.63;;;-4.59;100.00
30339;BME280;795;49.296;11.348;2023-02-28T02:17:21;97022.56;;;-4.55;100.00
30339;BME280;795;49.296;11.348;2023-02-28T02:20:32;97030.63;;;-4.59;100.00
30339;BME280;795;49.296;11.348;2023-02-28T02:23:33;97010.72;;;-4.63;100.00
30339;BME280;795;49.296;11.348;2023-02-28T02:29:41;97022.75;;;-4.59;100.00
30339;BME280;795;49.296;11.348;2023-02-28T02:36:02;97016.81;;;-4.63;100.00
30339;BME280;795;49.296;11.348;2023-02-28T02:38:50;96999.38;;;-4.64;100.00
30339;BME280;795;49.296;11.348;2023-02-28T02:41:35;96948.03;;;-5.10;100.00
30339;BME280;795;49.296;11.348;2023-02-28T02:47:14;97012.00;;;-4.74;100.00
30339;BME280;795;49.296;11.348;2023-02-28T02:49:55;97025.66;;;-4.65;100.00
30339;BME280;795;49.296;11.348;2023-02-28T02:52:35;96990.19;;;-4.96;100.00
30339;BME280;795;49.296;11.348;2023-02-28T02:55:07;96995.56;;;-4.99;100.00
30339;BME280;795;49.296;11.348;2023-02-28T02:58:02;96974.09;;;-5.07;100.00
30339;BME280;795;49.296;11.348;2023-02-28T03:00:40;97026.81;;;-4.73;100.00
30339;BME280;795;49.296;11.348;2023-02-28T03:03:11;97002.31;;;-4.93;100.00
30339;BME280;795;49.296;11.348;2023-02-28T03:05:48;97003.00;;;-4.88;100.00
30339;BME280;795;49.296;11.348;2023-02-28T03:08:16;96993.69;;;-4.95;100.00
30339;BME280;795;49.296;11.348;2023-02-28T03:10:50;97042.56;;;-4.74;100.00
30339;BME280;795;49.296;11.348;2023-02-28T03:14:50;97035.44;;;-4.71;100.00
30339;BME280;795;49.296;11.348;2023-02-28T03:20:17;97038.25;;;-4.75;100.00
30339;BME280;795;49.296;11.348;2023-02-28T03:23:24;96999.97;;;-4.99;100.00
30339;BME280;795;49.296;11.348;2023-02-28T03:26:21;97028.94;;;-4.82;100.00
30339;BME280;795;49.296;11.348;2023-02-28T03:29:00;97035.63;;;-4.75;100.00
30339;BME280;795;49.296;11.348;2023-02-28T03:31:39;97028.38;;;-4.90;100.00
30339;BME280;795;49.296;11.348;2023-02-28T03:34:22;96971.88;;;-5.17;100.00
30339;BME280;795;49.296;11.348;2023-02-28T03:37:02;97033.50;;;-4.87;100.00
30339;BME280;795;49.296;11.348;2023-02-28T03:39:42;96979.53;;;-5.34;100.00
30339;BME280;795;49.296;11.348;2023-02-28T03:42:27;97039.84;;;-4.93;100.00
30339;BME280;795;49.296;11.348;2023-02-28T03:45:04;97014.31;;;-5.09;100.00
30339;BME280;795;49.296;11.348;2023-02-28T03:47:53;97035.06;;;-5.05;100.00
30339;BME280;795;49.296;11.348;2023-02-28T03:50:35;97000.63;;;-5.16;100.00
30339;BME280;795;49.296;11.348;2023-02-28T03:53:19;96978.47;;;-5.29;100.00
30339;BME280;795;49.296;11.348;2023-02-28T03:56:18;97004.81;;;-5.12;100.00
30339;BME280;795;49.296;11.348;2023-02-28T03:59:01;96981.69;;;-5.22;100.00
30339;BME280;795;49.296;11.348;2023-02-28T04:01:43;97013.34;;;-5.07;100.00
30339;BME280;795;49.296;11.348;2023-02-28T04:04:13;97025.50;;;-5.06;100.00
30339;BME280;795;49.296;11.348;2023-02-28T04:06:43;97039.72;;;-5.11;100.00
30339;BME280;795;49.296;11.348;2023-02-28T04:09:14;96982.63;;;-5.47;100.00
30339;BME280;795;49.296;11.348;2023-02-28T04:11:52;97021.69;;;-5.19;100.00
30339;BME280;795;49.296;11.348;2023-02-28T04:14:19;96974.78;;;-5.47;100.00
30339;BME280;795;49.296;11.348;2023-02-28T04:16:46;97008.81;;;-5.25;100.00
30339;BME280;795;49.296;11.348;2023-02-28T04:19:14;97039.94;;;-4.96;100.00
30339;BME280;795;49.296;11.348;2023-02-28T04:21:45;97045.94;;;-4.92;100.00
30339;BME280;795;49.296;11.348;2023-02-28T04:24:18;97041.28;;;-4.86;100.00
30339;BME280;795;49.296;11.348;2023-02-28T04:26:54;97042.56;;;-4.96;100.00
30339;BME280;795;49.296;11.348;2023-02-28T04:29:30;97039.28;;;-5.01;100.00
30339;BME280;795;49.296;11.348;2023-02-28T04:31:59;97034.97;;;-5.02;100.00
30339;BME280;795;49.296;11.348;2023-02-28T04:34:30;97001.41;;;-5.14;100.00
30339;BME280;795;49.296;11.348;2023-02-28T04:36:58;97047.44;;;-4.87;100.00
30339;BME280;795;49.296;11.348;2023-02-28T04:39:41;97054.97;;;-4.79;100.00
30339;BME280;795;49.296;11.348;2023-02-28T04:42:11;96954.41;;;-5.39;100.00
30339;BME280;795;49.296;11.348;2023-02-28T04:44:38;97034.53;;;-4.91;100.00
30339;BME280;795;49.296;11.348;2023-02-28T04:47:05;97031.78;;;-4.88;100.00
30339;BME280;795;49.296;11.348;2023-02-28T04:49:32;97020.91;;;-4.99;100.00
30339;BME280;795;49.296;11.348;2023-02-28T04:51:59;97012.22;;;-5.01;100.00
30339;BME280;795;49.296;11.348;2023-02-28T04:54:26;97003.47;;;-5.22;100.00
30339;BME280;795;49.296;11.348;2023-02-28T04:56:55;97035.63;;;-4.97;100.00
30339;BME280;795;49.296;11.348;2023-02-28T04:59:22;96977.03;;;-5.38;100.00
30339;BME280;795;49.296;11.348;2023-02-28T05:01:49;96985.81;;;-5.39;100.00
30339;BME280;795;49.296;11.348;2023-02-28T05:04:16;96992.41;;;-5.28;100.00
30339;BME280;795;49.296;11.348;2023-02-28T05:06:44;97031.41;;;-5.22;100.00
30339;BME280;795;49.296;11.348;2023-02-28T05:09:11;97038.75;;;-5.09;100.00
30339;BME280;795;49.296;11.348;2023-02-28T05:11:39;97006.88;;;-5.20;100.00
30339;BME280;795;49.296;11.348;2023-02-28T05:14:14;97000.97;;;-5.25;100.00
30339;BME280;795;49.296;11.348;2023-02-28T05:16:42;97052.34;;;-5.01;100.00
30339;BME280;795;49.296;11.348;2023-02-28T05:19:09;97049.22;;;-5.09;100.00
30339;BME280;795;49.296;11.348;2023-02-28T05:21:41;97013.09;;;-5.22;100.00
30339;BME280;795;49.296;11.348;2023-02-28T05:24:14;97056.69;;;-5.00;100.00
30339;BME280;795;49.296;11.348;2023-02-28T05:26:43;97051.56;;;-5.03;100.00
30339;BME280;795;49.296;11.348;2023-02-28T05:29:10;97004.34;;;-5.21;100.00
30339;BME280;795;49.296;11.348;2023-02-28T05:31:37;97004.56;;;-5.27;100.00
30339;BME280;795;49.296;11.348;2023-02-28T05:34:05;96994.81;;;-5.46;100.00
30339;BME280;795;49.296;11.348;2023-02-28T05:36:33;97048.47;;;-5.12;100.00
30339;BME280;795;49.296;11.348;2023-02-28T05:39:00;97036.44;;;-5.18;100.00
30339;BME280;795;49.296;11.348;2023-02-28T05:41:27;97053.50;;;-5.08;100.00
30339;BME280;795;49.296;11.348;2023-02-28T05:43:54;97061.63;;;-4.92;100.00
30339;BME280;795;49.296;11.348;2023-02-28T05:46:22;97021.13;;;-5.27;100.00
30339;BME280;795;49.296;11.348;2023-02-28T05:48:49;97062.16;;;-5.06;100.00
30339;BME280;795;49.296;11.348;2023-02-28T05:51:17;97039.88;;;-5.16;100.00
30339;BME280;795;49.296;11.348;2023-02-28T05:53:44;97017.09;;;-5.35;100.00
30339;BME280;795;49.296;11.348;2023-02-28T05:56:11;97060.66;;;-5.11;100.00
30339;BME280;795;49.296;11.348;2023-02-28T05:58:38;97069.81;;;-5.01;100.00
30339;BME280;795;49.296;11.348;2023-02-28T06:01:40;97005.00;;;-5.38;100.00
30339;BME280;795;49.296;11.348;2023-02-28T06:04:10;97053.63;;;-5.11;100.00
30339;BME280;795;49.296;11.348;2023-02-28T06:06:51;97079.31;;;-4.99;100.00
30339;BME280;795;49.296;11.348;2023-02-28T06:09:18;97078.59;;;-5.02;100.00
30339;BME280;795;49.296;11.348;2023-02-28T06:11:45;97081.25;;;-4.81;100.00
30339;BME280;795;49.296;11.348;2023-02-28T06:14:19;97064.06;;;-4.88;100.00
30339;BME280;795;49.296;11.348;2023-02-28T06:16:47;97052.25;;;-4.76;100.00
30339;BME280;795;49.296;11.348;2023-02-28T06:19:14;97052.19;;;-4.75;100.00
30339;BME280;795;49.296;11.348;2023-02-28T06:21:42;97035.28;;;-4.88;100.00
30339;BME280;795;49.296;11.348;2023-02-28T06:24:10;97080.97;;;-4.53;100.00
30339;BME280;795;49.296;11.348;2023-02-28T06:26:37;97037.13;;;-4.70;100.00
30339;BME280;795;49.296;11.348;2023-02-28T06:29:05;97042.81;;;-4.58;100.00
30339;BME280;795;49.296;11.348;2023-02-28T06:31:32;97071.66;;;-4.38;100.00
30339;BME280;795;49.296;11.348;2023-02-28T06:33:59;97076.38;;;-4.26;100.00
30339;BME280;795;49.296;11.348;2023-02-28T06:36:26;97021.34;;;-4.46;100.00
30339;BME280;795;49.296;11.348;2023-02-28T06:38:53;97074.72;;;-4.07;100.00
30339;BME280;795;49.296;11.348;2023-02-28T06:41:26;97060.34;;;-4.19;100.00
30339;BME280;795;49.296;11.348;2023-02-28T06:43:53;96998.94;;;-4.53;100.00
30339;BME280;795;49.296;11.348;2023-02-28T06:46:21;97077.34;;;-3.87;100.00
30339;BME280;795;49.296;11.348;2023-02-28T06:48:49;97069.75;;;-3.93;100.00
30339;BME280;795;49.296;11.348;2023-02-28T06:51:20;97052.94;;;-3.89;100.00
30339;BME280;795;49.296;11.348;2023-02-28T06:53:48;97013.78;;;-4.12;100.00
30339;BME280;795;49.296;11.348;2023-02-28T06:56:17;97081.31;;;-3.58;100.00
30339;BME280;795;49.296;11.348;2023-02-28T06:58:50;97065.41;;;-3.54;100.00
30339;BME280;795;49.296;11.348;2023-02-28T07:01:19;97080.44;;;-3.39;100.00
30339;BME280;795;49.296;11.348;2023-02-28T07:03:47;96953.06;;;-4.03;100.00
30339;BME280;795;49.296;11.348;2023-02-28T07:06:23;97064.78;;;-3.21;100.00
30339;BME280;795;49.296;11.348;2023-02-28T07:08:53;97082.09;;;-2.26;100.00
30339;BME280;795;49.296;11.348;2023-02-28T07:11:24;97045.13;;;-2.06;100.00
30339;BME280;795;49.296;11.348;2023-02-28T07:13:56;97079.38;;;-1.39;100.00
30339;BME280;795;49.296;11.348;2023-02-28T07:16:25;97095.81;;;-0.85;100.00
30339;BME280;795;49.296;11.348;2023-02-28T07:18:53;97038.16;;;-1.07;100.00
30339;BME280;795;49.296;11.348;2023-02-28T07:21:21;97101.75;;;-0.19;100.00
30339;BME280;795;49.296;11.348;2023-02-28T07:23:48;97058.56;;;-0.32;97.55
30339;BME280;795;49.296;11.348;2023-02-28T07:26:19;97091.38;;;-0.07;92.98
30339;BME280;795;49.296;11.348;2023-02-28T07:28:48;97038.97;;;-0.28;92.13
30339;BME280;795;49.296;11.348;2023-02-28T07:31:16;97080.28;;;0.32;89.40
30339;BME280;795;49.296;11.348;2023-02-28T07:33:44;96969.09;;;-0.21;84.43
30339;BME280;795;49.296;11.348;2023-02-28T07:36:17;97100.69;;;0.58;83.58
30339;BME280;795;49.296;11.348;2023-02-28T07:38:48;97098.75;;;0.32;83.24
30339;BME280;795;49.296;11.348;2023-02-28T07:41:21;97092.94;;;0.41;84.12
30339;BME280;795;49.296;11.348;2023-02-28T07:43:48;97032.53;;;0.07;81.70
30339;BME280;795;49.296;11.348;2023-02-28T07:46:16;97009.72;;;0.20;81.87
30339;BME280;795;49.296;11.348;2023-02-28T07:48:44;97066.59;;;0.70;78.71
30339;BME280;795;49.296;11.348;2023-02-28T07:51:12;96915.41;;;-0.06;78.03
30339;BME280;795;49.296;11.348;2023-02-28T07:53:39;97010.03;;;0.44;76.91
30339;BME280;795;49.296;11.348;2023-02-28T07:56:07;97099.56;;;1.06;78.25
30339;BME280;795;49.296;11.348;2023-02-28T07:58:34;96967.28;;;0.51;78.22
30339;BME280;795;49.296;11.348;2023-02-28T08:01:10;97043.34;;;1.03;73.44
30339;BME280;795;49.296;11.348;2023-02-28T08:03:39;97104.81;;;1.20;75.40
30339;BME280;795;49.296;11.348;2023-02-28T08:06:19;97102.00;;;1.78;73.28
30339;BME280;795;49.296;11.348;2023-02-28T08:08:46;96959.72;;;0.88;71.69
30339;BME280;795;49.296;11.348;2023-02-28T08:11:14;96956.56;;;0.54;72.86
30339;BME280;795;49.296;11.348;2023-02-28T08:13:43;97108.13;;;1.24;74.29
30339;BME280;795;49.296;11.348;2023-02-28T08:16:13;97113.59;;;1.49;73.64
30339;BME280;795;49.296;11.348;2023-02-28T08:18:51;97105.13;;;1.71;72.01
30339;BME280;795;49.296;11.348;2023-02-28T08:21:20;97123.78;;;2.23;70.86
30339;BME280;795;49.296;11.348;2023-02-28T08:23:50;97122.81;;;2.24;69.54
30339;BME280;795;49.296;11.348;2023-02-28T08:26:19;97067.75;;;2.29;68.13
30339;BME280;795;49.296;11.348;2023-02-28T08:28:46;97115.19;;;1.92;69.12
30339;BME280;795;49.296;11.348;2023-02-28T08:31:16;97005.50;;;1.43;68.50
30339;BME280;795;49.296;11.348;2023-02-28T08:33:44;97128.13;;;2.24;68.49
30339;BME280;795;49.296;11.348;2023-02-28T08:36:12;97035.31;;;1.86;67.70
30339;BME280;795;49.296;11.348;2023-02-28T08:38:39;97117.78;;;2.85;67.03
30339;BME280;795;49.296;11.348;2023-02-28T08:41:12;97118.31;;;2.90;64.74
30339;BME280;795;49.296;11.348;2023-02-28T08:43:41;97119.44;;;2.61;66.03
30339;BME280;795;49.296;11.348;2023-02-28T08:46:12;97026.13;;;2.94;64.21
30339;BME280;795;49.296;11.348;2023-02-28T08:48:40;97032.28;;;3.56;61.44
30339;BME280;795;49.296;11.348;2023-02-28T08:51:19;97078.31;;;3.67;60.26
30339;BME280;795;49.296;11.348;2023-02-28T08:53:57;97117.81;;;3.72;61.14
30339;BME280;795;49.296;11.348;2023-02-28T08:56:28;97037.13;;;3.62;60.99
30339;BME280;795;49.296;11.348;2023-02-28T08:58:57;96973.78;;;3.21;59.63
30339;BME280;795;49.296;11.348;2023-02-28T09:03:38;97085.63;;;4.47;58.02
30339;BME280;795;49.296;11.348;2023-02-28T09:06:06;97085.78;;;3.86;58.32
30339;BME280;795;49.296;11.348;2023-02-28T09:08:33;97114.41;;;4.06;58.17
30339;BME280;795;49.296;11.348;2023-02-28T09:11:00;96993.56;;;2.66;60.19
30339;BME280;795;49.296;11.348;2023-02-28T09:13:30;96966.66;;;2.73;59.46
30339;BME280;795;49.296;11.348;2023-02-28T09:16:02;97093.91;;;3.10;60.68
30339;BME280;795;49.296;11.348;2023-02-28T09:18:29;97091.38;;;3.70;59.04
30339;BME280;795;49.296;11.348;2023-02-28T09:20:57;97019.94;;;3.55;57.58
30339;BME280;795;49.296;11.348;2023-02-28T09:23:24;97131.72;;;5.05;56.85
30339;BME280;795;49.296;11.348;2023-02-28T09:25:54;96992.69;;;4.46;54.01
30339;BME280;795;49.296;11.348;2023-02-28T09:28:22;97079.75;;;4.66;55.39
30339;BME280;795;49.296;11.348;2023-02-28T09:30:54;97062.34;;;4.62;55.18
30339;BME280;795;49.296;11.348;2023-02-28T09:33:22;97041.31;;;4.70;55.45
30339;BME280;795;49.296;11.348;2023-02-28T09:35:56;97092.47;;;4.39;55.08
30339;BME280;795;49.296;11.348;2023-02-28T09:38:24;97023.59;;;3.77;56.40
30339;BME280;795;49.296;11.348;2023-02-28T09:40:59;97115.25;;;4.54;55.36
30339;BME280;795;49.296;11.348;2023-02-28T09:43:38;96972.28;;;3.77;56.45
30339;BME280;795;49.296;11.348;2023-02-28T09:49:07;97114.94;;;6.47;51.35
30339;BME280;795;49.296;11.348;2023-02-28T09:52:07;97122.09;;;5.37;52.06
30339;BME280;795;49.296;11.348;2023-02-28T09:54:37;97064.06;;;4.74;53.02
30339;BME280;795;49.296;11.348;2023-02-28T09:57:32;97060.41;;;4.64;52.96
30339;BME280;795;49.296;11.348;2023-02-28T10:00:13;97128.19;;;5.61;53.25
30339;BME280;795;49.296;11.348;2023-02-28T10:03:20;97094.63;;;5.59;51.59
30339;BME280;795;49.296;11.348;2023-02-28T10:06:14;96910.50;;;4.21;52.03
30339;BME280;795;49.296;11.348;2023-02-28T10:09:00;97040.63;;;3.86;53.99
30339;BME280;795;49.296;11.348;2023-02-28T10:11:33;97079.81;;;3.95;54.92
30339;BME280;795;49.296;11.348;2023-02-28T10:14:19;96882.50;;;3.00;55.41
30339;BME280;795;49.296;11.348;2023-02-28T10:17:11;97023.69;;;3.76;55.40
30339;BME280;795;49.296;11.348;2023-02-28T10:20:27;97086.56;;;4.81;52.73
30339;BME280;795;49.296;11.348;2023-02-28T10:23:30;97136.59;;;5.11;53.56
30339;BME280;795;49.296;11.348;2023-02-28T10:26:13;97099.34;;;5.99;52.10
30339;BME280;795;49.296;11.348;2023-02-28T10:28:43;97127.09;;;5.86;50.07
30339;BME280;795;49.296;11.348;2023-02-28T10:31:19;97122.44;;;4.41;52.96
30339;BME280;795;49.296;11.348;2023-02-28T10:33:47;97126.97;;;4.51;53.96
30339;BME280;795;49.296;11.348;2023-02-28T10:36:20;96974.59;;;3.58;53.29
30339;BME280;795;49.296;11.348;2023-02-28T10:38:49;97076.38;;;3.08;56.14
30339;BME280;795;49.296;11.348;2023-02-28T10:41:32;97119.47;;;3.37;56.04
30339;BME280;795;49.296;11.348;2023-02-28T10:44:23;97115.44;;;3.06;56.99
30339;BME280;795;49.296;11.348;2023-02-28T10:46:51;97065.28;;;2.78;56.71
30339;BME280;795;49.296;11.348;2023-02-28T10:49:27;97119.22;;;3.65;56.61
30339;BME280;795;49.296;11.348;2023-02-28T10:52:00;97133.25;;;3.54;55.51
30339;BME280;795;49.296;11.348;2023-02-28T10:54:32;97076.38;;;3.20;56.26
30339;BME280;795;49.296;11.348;2023-02-28T10:57:23;97126.72;;;3.71;54.50
30339;BME280;795;49.296;11.348;2023-02-28T11:00:23;97128.38;;;3.35;55.23
30339;BME280;795;49.296;11.348;2023-02-28T11:02:52;96693.34;;;0.53;57.44
30339;BME280;795;49.296;11.348;2023-02-28T11:05:33;97088.09;;;3.90;54.29
30339;BME280;795;49.296;11.348;2023-02-28T11:08:14;97131.56;;;3.41;54.62
30339;BME280;795;49.296;11.348;2023-02-28T11:10:53;97134.34;;;3.14;56.60
30339;BME280;795;49.296;11.348;2023-02-28T11:13:32;97057.00;;;2.95;55.19
30339;BME280;795;49.296;11.348;2023-02-28T11:16:04;97129.78;;;3.90;54.86
30339;BME280;795;49.296;11.348;2023-02-28T11:18:54;96864.81;;;2.88;55.08
30339;BME280;795;49.296;11.348;2023-02-28T11:21:31;97082.13;;;4.23;52.99
30339;BME280;795;49.296;11.348;2023-02-28T11:24:35;97063.75;;;4.20;52.91
30339;BME280;795;49.296;11.348;2023-02-28T11:27:03;96987.03;;;4.50;51.98
30339;BME280;795;49.296;11.348;2023-02-28T11:29:33;96903.53;;;4.53;51.13
30339;BME280;795;49.296;11.348;2023-02-28T11:32:22;97114.94;;;6.47;49.09
30339;BME280;795;49.296;11.348;2023-02-28T11:35:21;97121.69;;;7.14;48.48
30339;BME280;795;49.296;11.348;2023-02-28T11:37:50;97125.19;;;7.66;46.03
30339;BME280;795;49.296;11.348;2023-02-28T11:44:04;97096.97;;;8.22;44.64
30339;BME280;795;49.296;11.348;2023-02-28T11:46:51;97116.06;;;7.98;46.09
30339;BME280;795;49.296;11.348;2023-02-28T11:53:14;97028.03;;;7.06;46.24
30339;BME280;795;49.296;11.348;2023-02-28T11:56:03;97112.16;;;7.01;47.24
30339;BME280;795;49.296;11.348;2023-02-28T11:59:19;96963.19;;;6.23;47.48
30339;BME280;795;49.296;11.348;2023-02-28T12:05:12;97113.72;;;7.03;47.38
30339;BME280;795;49.296;11.348;2023-02-28T12:11:23;97107.44;;;7.04;47.35
30339;BME280;795;49.296;11.348;2023-02-28T12:17:07;97126.22;;;9.02;44.01
30339;BME280;795;49.296;11.348;2023-02-28T12:26:38;97097.31;;;10.52;40.40
30339;BME280;795;49.296;11.348;2023-02-28T12:37:51;97023.53;;;7.37;45.21
30339;BME280;795;49.296;11.348;2023-02-28T12:40:31;96942.44;;;7.38;44.72
30339;BME280;795;49.296;11.348;2023-02-28T12:43:07;96931.84;;;8.05;42.69
30339;BME280;795;49.296;11.348;2023-02-28T12:45:53;97110.97;;;9.12;43.03
30339;BME280;795;49.296;11.348;2023-02-28T12:49:18;97102.28;;;8.52;43.01
30339;BME280;795;49.296;11.348;2023-02-28T12:51:49;96881.19;;;7.65;43.48
30339;BME280;795;49.296;11.348;2023-02-28T12:54:51;97101.75;;;10.44;40.49
30339;BME280;795;49.296;11.348;2023-02-28T12:57:48;96972.38;;;8.10;42.67
30339;BME280;795;49.296;11.348;2023-02-28T13:00:23;97024.97;;;9.15;42.90
30339;BME280;795;49.296;11.348;2023-02-28T13:06:38;97092.59;;;9.36;43.00
30339;BME280;795;49.296;11.348;2023-02-28T13:09:18;96979.97;;;8.72;41.93
30339;BME280;795;49.296;11.348;2023-02-28T13:11:52;97082.72;;;9.46;41.69
30339;BME280;795;49.296;11.348;2023-02-28T13:14:38;96978.91;;;9.39;41.12
30339;BME280;795;49.296;11.348;2023-02-28T13:19:58;97089.81;;;10.91;39.61
30339;BME280;795;49.296;11.348;2023-02-28T13:24:56;97086.28;;;10.55;40.63
30339;BME280;795;49.296;11.348;2023-02-28T13:27:39;97043.78;;;8.38;42.96
30339;BME280;795;49.296;11.348;2023-02-28T13:33:36;97072.41;;;10.06;41.17
30339;BME280;795;49.296;11.348;2023-02-28T13:39:46;97075.78;;;10.80;39.10
30339;BME280;795;49.296;11.348;2023-02-28T13:41:52;96834.91;;;8.96;39.23
30339;BME280;795;49.296;11.348;2023-02-28T13:44:23;97100.22;;;10.41;40.11
30339;BME280;795;49.296;11.348;2023-02-28T13:55:24;97105.22;;;9.99;40.31
30339;BME280;795;49.296;11.348;2023-02-28T14:06:33;97101.59;;;9.45;41.81
30339;BME280;795;49.296;11.348;2023-02-28T14:09:19;97011.94;;;9.39;41.16
30339;BME280;795;49.296;11.348;2023-02-28T14:11:48;96890.09;;;8.69;41.37
30339;BME280;795;49.296;11.348;2023-02-28T14:17:13;96943.81;;;8.20;41.98
30339;BME280;795;49.296;11.348;2023-02-28T14:19:45;97089.16;;;10.27;41.15
30339;BME280;795;49.296;11.348;2023-02-28T14:22:51;97030.50;;;9.77;40.80
30339;BME280;795;49.296;11.348;2023-02-28T14:25:47;97080.72;;;9.85;41.43
30339;BME280;795;49.296;11.348;2023-02-28T14:28:43;97082.75;;;10.00;41.13
30339;BME280;795;49.296;11.348;2023-02-28T14:31:25;97066.66;;;9.73;40.71
30339;BME280;795;49.296;11.348;2023-02-28T14:34:48;97043.94;;;8.46;42.77
30339;BME280;795;49.296;11.348;2023-02-28T14:37:36;96962.81;;;7.98;42.82
30339;BME280;795;49.296;11.348;2023-02-28T14:40:15;97106.78;;;8.90;42.66
30339;BME280;795;49.296;11.348;2023-02-28T14:42:59;97009.97;;;8.18;43.36
30339;BME280;795;49.296;11.348;2023-02-28T14:45:32;97096.47;;;9.05;42.81
30339;BME280;795;49.296;11.348;2023-02-28T14:48:02;97023.94;;;8.60;42.77
30339;BME280;795;49.296;11.348;2023-02-28T14:50:36;97015.50;;;9.30;42.16
30339;BME280;795;49.296;11.348;2023-02-28T14:53:16;96994.19;;;8.25;42.68
30339;BME280;795;49.296;11.348;2023-02-28T14:55:49;96971.72;;;8.37;43.13
30339;BME280;795;49.296;11.348;2023-02-28T14:58:33;96986.47;;;8.31;43.09
30339;BME280;795;49.296;11.348;2023-02-28T15:01:03;97053.50;;;8.30;44.25
30339;BME280;795;49.296;11.348;2023-02-28T15:03:38;97079.78;;;9.40;42.71
30339;BME280;795;49.296;11.348;2023-02-28T15:06:17;96761.38;;;7.42;42.00
30339;BME280;795;49.296;11.348;2023-02-28T15:08:45;97095.06;;;9.10;42.57
30339;BME280;795;49.296;11.348;2023-02-28T15:11:19;97028.31;;;7.73;43.92
30339;BME280;795;49.296;11.348;2023-02-28T15:13:53;96917.44;;;6.99;44.59
30339;BME280;795;49.296;11.348;2023-02-28T15:16:39;97077.84;;;7.77;45.06
30339;BME280;795;49.296;11.348;2023-02-28T15:19:22;97083.50;;;7.84;44.98